Time;durP1;ratioP1;P1;durP2;ratioP2;P2;SDS_P1;SDS_P2;PMS_P1;PMS_P2;Temp;Humidity;BMP_temperature;BMP_pressure;BME280_temperature;BME280_humidity;BME280_pressure;Samples;Min_cycle;Max_cycle;Signal;HPM_P1;HPM_P2
2023/08/01 00:00:07;;;;;;;;;4.00;4.00;;;;;23.39;61.71;100256.66;2042338;27;3465888;-77
2023/08/01 00:01:17;;;;;;;;;6.67;4.33;;;;;23.40;62.42;100241.41;2025571;28;3463814;-77
2023/08/01 00:02:29;;;;;;;;;6.67;4.00;;;;;23.38;62.23;100246.94;2040680;27;2752434;-77
2023/08/01 00:03:39;;;;;;;;;4.00;3.33;;;;;23.38;62.57;100236.19;2034765;27;2744161;-77
2023/08/01 00:04:50;;;;;;;;;4.67;3.67;;;;;23.37;61.88;100240.72;2035683;28;2754525;-77
2023/08/01 00:06:01;;;;;;;;;3.00;3.00;;;;;23.37;62.25;100256.81;2034424;28;2738912;-78
2023/08/01 00:07:12;;;;;;;;;7.33;3.00;;;;;23.36;62.20;100239.00;2038218;27;2742164;-77
2023/08/01 00:08:23;;;;;;;;;4.67;4.67;;;;;23.36;61.77;100243.56;2043351;27;2745088;-77
2023/08/01 00:09:33;;;;;;;;;5.00;4.33;;;;;23.36;61.95;100244.38;2039189;27;2739279;-80
2023/08/01 00:10:44;;;;;;;;;3.67;3.67;;;;;23.35;62.28;100239.16;2041479;27;2733712;-83
2023/08/01 00:11:55;;;;;;;;;5.00;4.00;;;;;23.35;61.91;100242.69;2045260;27;3467961;-82
2023/08/01 00:13:07;;;;;;;;;2.33;2.00;;;;;23.34;62.07;100246.38;2043182;27;2741988;-82
2023/08/01 00:14:20;;;;;;;;;6.00;3.67;;;;;23.34;62.06;100245.50;2021172;28;2750490;-81
2023/08/01 00:15:30;;;;;;;;;4.00;4.00;;;;;23.35;62.23;100244.53;2023217;28;2749327;-80
2023/08/01 00:16:41;;;;;;;;;4.33;3.00;;;;;23.35;62.26;100252.56;2030458;27;2734703;-80
2023/08/01 00:17:52;;;;;;;;;5.00;4.33;;;;;23.35;61.57;100255.25;2044376;27;2745088;-80
2023/08/01 00:19:03;;;;;;;;;4.67;3.00;;;;;23.34;61.88;100258.91;2045421;27;2740914;-80
2023/08/01 00:20:14;;;;;;;;;3.33;3.33;;;;;23.33;62.22;100263.47;2040006;27;2749325;-80
2023/08/01 00:21:24;;;;;;;;;6.33;4.00;;;;;23.33;62.32;100250.06;2039065;27;3465884;-80
2023/08/01 00:22:35;;;;;;;;;5.00;5.00;;;;;23.32;62.06;100248.34;2042431;27;2752451;-79
2023/08/01 00:23:46;;;;;;;;;4.00;4.00;;;;;23.31;61.80;100246.66;2047413;27;2744124;-86
2023/08/01 00:24:57;;;;;;;;;3.00;3.00;;;;;23.32;62.00;100251.03;2044158;27;2742006;-84
2023/08/01 00:26:08;;;;;;;;;6.00;4.00;;;;;23.33;62.51;100254.56;2030300;27;2746183;-84
2023/08/01 00:27:19;;;;;;;;;4.00;4.00;;;;;23.32;62.38;100245.66;2039437;28;2750379;-85
2023/08/01 00:28:31;;;;;;;;;4.00;3.00;;;;;23.32;62.53;100242.13;2040036;27;2737922;-85
2023/08/01 00:29:41;;;;;;;;;5.00;4.00;;;;;23.32;62.18;100240.31;2035015;27;2749709;-85
2023/08/01 00:31:10;;;;;;;;;4.00;4.00;;;;;23.33;61.76;100238.47;2051430;27;2749324;-85
2023/08/01 00:32:21;;;;;;;;;3.33;3.33;;;;;23.32;61.79;100243.00;2035351;27;2752445;-85
2023/08/01 00:33:32;;;;;;;;;3.67;3.67;;;;;23.31;61.74;100235.94;2035055;27;2750406;-84
2023/08/01 00:34:43;;;;;;;;;3.00;3.00;;;;;23.31;62.30;100241.28;2032045;27;2737853;-81
2023/08/01 00:35:54;;;;;;;;;3.67;3.67;;;;;23.30;62.37;100236.94;2042716;28;2747234;-80
2023/08/01 00:37:05;;;;;;;;;6.67;4.00;;;;;23.30;62.49;100238.75;2032690;27;2749663;-80
2023/08/01 00:38:15;;;;;;;;;3.67;3.00;;;;;23.28;61.85;100241.59;2038274;27;2741000;-81
2023/08/01 00:39:26;;;;;;;;;4.00;4.00;;;;;23.26;62.35;100247.09;2042782;27;2745151;-81
2023/08/01 00:40:37;;;;;;;;;4.00;4.00;;;;;23.27;62.21;100238.06;2044785;27;2747135;-81
2023/08/01 00:41:48;;;;;;;;;5.67;4.00;;;;;23.27;61.77;100237.22;2029171;28;2748265;-80
2023/08/01 00:42:59;;;;;;;;;4.00;4.00;;;;;23.26;62.12;100232.88;2044008;27;2754543;-82
2023/08/01 00:44:10;;;;;;;;;4.00;2.00;;;;;23.26;62.31;100232.88;2027927;27;3470063;-81
2023/08/01 00:45:21;;;;;;;;;4.00;3.00;;;;;23.26;61.96;100239.06;2040666;27;2748230;-81
2023/08/01 00:46:32;;;;;;;;;3.00;3.00;;;;;23.27;61.99;100234.53;2024417;28;2740915;-81
2023/08/01 00:47:46;;;;;;;;;3.00;3.00;;;;;23.26;62.14;100227.50;2044945;28;2731555;-82
2023/08/01 00:48:58;;;;;;;;;6.33;4.00;;;;;23.27;62.34;100234.53;2003024;28;3467960;-81
2023/08/01 00:50:08;;;;;;;;;3.33;3.00;;;;;23.24;62.06;100230.31;2027118;28;2737754;-85
2023/08/01 00:51:19;;;;;;;;;5.00;3.67;;;;;23.25;62.75;100229.34;2028979;28;2748287;-85
2023/08/01 00:52:30;;;;;;;;;3.00;3.00;;;;;23.25;62.42;100223.13;2037163;27;2744135;-85
2023/08/01 00:53:41;;;;;;;;;2.33;2.33;;;;;23.24;62.13;100221.41;2044130;27;2744087;-84
2023/08/01 00:54:52;;;;;;;;;3.67;3.67;;;;;23.25;62.34;100220.44;2033509;28;3465889;-85
2023/08/01 00:56:03;;;;;;;;;3.33;3.33;;;;;23.24;62.28;100214.22;2030456;28;2744153;-85
2023/08/01 00:57:14;;;;;;;;;2.33;2.33;;;;;23.24;62.42;100222.28;2019129;27;2750438;-86
2023/08/01 00:58:25;;;;;;;;;4.33;4.33;;;;;23.24;61.99;100219.59;2035563;28;2746119;-85
2023/08/01 00:59:35;;;;;;;;;4.00;4.00;;;;;23.23;62.80;100225.13;2032740;28;2748193;-85
2023/08/01 01:00:46;;;;;;;;;3.00;3.00;;;;;23.22;62.54;100221.59;2038527;27;2737847;-84
2023/08/01 01:01:59;;;;;;;;;3.00;2.67;;;;;23.21;62.43;100202.97;2031993;27;2750772;-84
2023/08/01 01:03:09;;;;;;;;;3.00;3.00;;;;;23.20;62.82;100204.81;2026702;27;3461805;-84
2023/08/01 01:04:20;;;;;;;;;2.33;2.33;;;;;23.19;62.90;100215.69;2050282;27;2749358;-84
2023/08/01 01:05:37;;;;;;;;;4.33;3.33;;;;;23.18;62.29;100200.59;2045655;27;2738838;-84
2023/08/01 01:06:55;;;;;;;;;7.67;4.33;;;;;23.16;62.45;100206.91;2034607;27;2748263;-84
2023/08/01 01:08:09;;;;;;;;;3.50;2.83;;;;;23.14;62.76;100200.00;2058737;27;2734644;-84
2023/08/01 01:09:22;;;;;;;;;2.17;1.00;;;;;23.14;62.30;100206.22;2035316;27;2734633;-85
2023/08/01 01:10:32;;;;;;;;;4.00;4.00;;;;;23.14;62.84;100200.00;2011005;27;2738831;-84
2023/08/01 01:11:44;;;;;;;;;1.00;1.00;;;;;23.14;62.82;100198.19;2039423;27;2725298;-80
2023/08/01 01:12:55;;;;;;;;;2.67;2.67;;;;;23.14;62.83;100200.00;2026245;27;2739906;-78
2023/08/01 01:14:06;;;;;;;;;2.00;2.00;;;;;23.12;62.75;100197.50;2039757;27;2742435;-79
2023/08/01 01:15:17;;;;;;;;;1.67;1.67;;;;;23.13;62.81;100196.50;2040188;27;2741943;-78
2023/08/01 01:16:27;;;;;;;;;2.00;2.00;;;;;23.14;62.27;100190.16;2033720;28;2740890;-78
2023/08/01 01:17:39;;;;;;;;;3.00;3.00;;;;;23.16;62.45;100196.19;2050512;27;2744062;-78
2023/08/01 01:18:49;;;;;;;;;5.67;4.00;;;;;23.17;62.75;100186.31;2027417;27;2738802;-79
2023/08/01 01:20:00;;;;;;;;;5.00;2.33;;;;;23.20;62.54;100193.22;2048661;27;3470095;-80
2023/08/01 01:21:12;;;;;;;;;2.00;1.00;;;;;23.20;62.40;100196.75;2060093;27;2731531;-81
2023/08/01 01:22:23;;;;;;;;;4.00;2.00;;;;;23.21;62.29;100194.94;2026069;27;2741307;-80
2023/08/01 01:23:34;;;;;;;;;3.00;3.00;;;;;23.22;62.56;100189.41;2051153;28;2736754;-77
2023/08/01 01:24:45;;;;;;;;;3.33;2.33;;;;;23.24;62.36;100190.09;2003786;27;2748182;-85
2023/08/01 01:26:00;;;;;;;;;2.00;2.00;;;;;23.25;62.53;100189.13;2060898;27;2731867;-85
2023/08/01 01:27:12;;;;;;;;;3.00;2.00;;;;;23.27;62.11;100179.09;2013184;27;2747241;-77
2023/08/01 01:28:26;;;;;;;;;2.00;2.00;;;;;23.28;62.27;100177.25;2051276;27;2729440;-77
2023/08/01 01:29:41;;;;;;;;;1.00;0.33;;;;;23.29;62.12;100178.94;2025402;27;2729430;-77
2023/08/01 01:30:53;;;;;;;;;2.67;2.67;;;;;23.30;62.62;100186.00;2011215;27;2754587;-76
2023/08/01 01:32:05;;;;;;;;;2.00;2.00;;;;;23.31;62.11;100176.13;2030036;27;2750301;-75
2023/08/01 01:33:16;;;;;;;;;3.00;2.00;;;;;23.32;62.28;100184.00;2027974;28;2742010;-75
2023/08/01 01:34:28;;;;;;;;;4.67;2.00;;;;;23.32;61.88;100178.66;2032201;27;2754427;-75
2023/08/01 01:35:38;;;;;;;;;2.00;2.00;;;;;23.34;61.98;100186.53;2029836;27;2739845;-75
2023/08/01 01:36:49;;;;;;;;;2.00;2.00;;;;;23.34;61.98;100184.69;2045490;28;2745183;-75
2023/08/01 01:38:03;;;;;;;;;3.00;2.67;;;;;23.34;62.29;100182.03;2043431;27;2750807;-75
2023/08/01 01:39:13;;;;;;;;;2.67;2.00;;;;;23.35;62.18;100183.72;2035465;27;2741961;-75
2023/08/01 01:40:24;;;;;;;;;3.33;2.33;;;;;23.34;61.96;100187.38;2052675;27;2752478;-75
2023/08/01 01:41:35;;;;;;;;;1.00;1.00;;;;;23.35;61.98;100181.03;2054354;27;2715366;-74
2023/08/01 01:42:49;;;;;;;;;1.67;1.67;;;;;23.35;62.05;100183.72;2038931;27;2735678;-74
2023/08/01 01:43:59;;;;;;;;;1.00;1.00;;;;;23.36;62.30;100182.72;2013468;27;2735729;-76
2023/08/01 01:45:10;;;;;;;;;2.00;2.00;;;;;23.36;61.81;100188.06;2043738;28;2750284;-76
2023/08/01 01:46:22;;;;;;;;;5.00;2.00;;;;;23.35;62.43;100183.72;2053082;27;2737793;-76
2023/08/01 01:47:35;;;;;;;;;0.00;0.00;;;;;23.32;62.31;100192.06;2063413;27;2722145;-76
2023/08/01 01:48:48;;;;;;;;;1.17;1.17;;;;;23.30;62.48;100202.09;2036582;27;2727361;-76
2023/08/01 01:50:03;;;;;;;;;1.00;1.00;;;;;23.29;62.31;100213.78;2037744;27;2735681;-76
2023/08/01 01:51:16;;;;;;;;;0.83;0.83;;;;;23.25;62.93;100225.81;2037124;27;2731551;-76
2023/08/01 01:52:29;;;;;;;;;2.17;1.83;;;;;23.23;63.08;100227.78;2022332;28;2727372;-76
2023/08/01 01:53:42;;;;;;;;;2.67;1.67;;;;;23.20;63.49;100225.41;2023553;27;2732546;-76
2023/08/01 01:54:55;;;;;;;;;1.00;1.00;;;;;23.16;63.62;100222.19;2038499;27;2737809;-75
2023/08/01 01:56:09;;;;;;;;;2.00;1.00;;;;;23.11;63.64;100219.91;2038150;27;2729484;-75
2023/08/01 01:57:22;;;;;;;;;1.00;1.00;;;;;23.08;63.54;100225.59;2031052;28;2723179;-77
2023/08/01 01:58:35;;;;;;;;;1.17;1.17;;;;;23.05;63.81;100228.56;2031552;28;2723237;-76
2023/08/01 01:59:48;;;;;;;;;0.00;0.00;;;;;23.01;63.95;100219.13;2029061;28;2725258;-76
2023/08/01 02:01:01;;;;;;;;;1.00;0.50;;;;;22.99;63.78;100221.09;2030357;27;2731554;-76
2023/08/01 02:02:15;;;;;;;;;0.00;0.00;;;;;22.95;64.11;100225.03;2031844;27;2730482;-77
2023/08/01 02:03:28;;;;;;;;;0.50;0.50;;;;;22.90;63.45;100228.16;2036686;27;2736185;-77
2023/08/01 02:04:41;;;;;;;;;1.00;0.00;;;;;22.86;64.28;100222.25;2036787;27;2725269;-77
2023/08/01 02:05:54;;;;;;;;;0.00;0.00;;;;;22.84;63.50;100220.72;2021878;28;2731536;-78
2023/08/01 02:07:08;;;;;;;;;0.00;0.00;;;;;22.79;64.07;100215.78;2024168;28;2725278;-78
2023/08/01 02:08:21;;;;;;;;;1.00;0.00;;;;;22.76;64.19;100213.41;2031321;28;2729944;-77
2023/08/01 02:09:34;;;;;;;;;0.00;0.00;;;;;22.73;64.11;100225.25;2031085;28;2735699;-79
2023/08/01 02:10:48;;;;;;;;;0.00;0.00;;;;;22.70;64.50;100225.53;2034103;27;2725826;-79
2023/08/01 02:12:01;;;;;;;;;0.00;0.00;;;;;22.67;64.52;100229.28;2038602;27;2703890;-79
2023/08/01 02:13:14;;;;;;;;;0.00;0.00;;;;;22.65;64.09;100227.75;2057497;27;2722179;-79
2023/08/01 02:14:27;;;;;;;;;0.00;0.00;;;;;22.62;64.02;100228.88;2037106;27;2724279;-79
2023/08/01 02:15:40;;;;;;;;;0.00;0.00;;;;;22.59;64.27;100226.50;2034176;27;2733618;-80
2023/08/01 02:16:54;;;;;;;;;1.00;0.00;;;;;22.56;64.62;100233.00;2031471;27;2724724;-79
2023/08/01 02:18:07;;;;;;;;;0.83;0.00;;;;;22.55;64.30;100228.59;2037859;27;2716969;-78
2023/08/01 02:19:20;;;;;;;;;0.00;0.00;;;;;22.53;64.37;100230.59;2029482;28;2709664;-79
2023/08/01 02:20:33;;;;;;;;;0.00;0.00;;;;;22.51;64.77;100229.03;2054823;27;2708603;-79
2023/08/01 02:21:46;;;;;;;;;0.00;0.00;;;;;22.47;64.69;100223.97;2062277;27;2725273;-79
2023/08/01 02:22:59;;;;;;;;;0.00;0.00;;;;;22.46;64.82;100235.66;2038858;27;2710690;-79
2023/08/01 02:24:13;;;;;;;;;0.00;0.00;;;;;22.44;64.85;100237.66;2030635;27;2725258;-79
2023/08/01 02:25:26;;;;;;;;;0.00;0.00;;;;;22.42;64.66;100239.59;2023466;28;2721123;-82
2023/08/01 02:26:39;;;;;;;;;0.00;0.00;;;;;22.39;65.05;100237.22;2031198;27;2712763;-81
2023/08/01 02:27:52;;;;;;;;;0.00;0.00;;;;;22.38;64.88;100243.56;2034563;27;2712778;-81
2023/08/01 02:29:05;;;;;;;;;0.00;0.00;;;;;22.37;64.77;100247.22;2054899;28;2721096;-78
2023/08/01 02:30:18;;;;;;;;;0.00;0.00;;;;;22.35;64.90;100244.69;2034686;27;2723194;-78
2023/08/01 02:31:32;;;;;;;;;0.00;0.00;;;;;22.34;64.92;100242.16;2024925;28;2704430;-78
2023/08/01 02:32:45;;;;;;;;;0.00;0.00;;;;;22.33;65.29;100245.81;2052757;27;2725329;-78
2023/08/01 02:33:58;;;;;;;;;0.00;0.00;;;;;22.31;64.79;100240.59;2039092;27;2722135;-78
2023/08/01 02:35:11;;;;;;;;;0.00;0.00;;;;;22.31;65.49;100237.06;2040148;27;2711042;-78
2023/08/01 02:36:24;;;;;;;;;0.50;0.00;;;;;22.30;65.09;100241.56;2033602;27;2723230;-78
2023/08/01 02:37:37;;;;;;;;;0.17;0.00;;;;;22.29;65.48;100244.41;2036244;27;2720086;-78
2023/08/01 02:38:51;;;;;;;;;0.00;0.00;;;;;22.28;65.09;100250.72;2035879;27;2727355;-79
2023/08/01 02:40:07;;;;;;;;;0.00;0.00;;;;;22.28;64.94;100248.03;2038392;27;2710695;-78
2023/08/01 02:41:20;;;;;;;;;0.67;0.00;;;;;22.25;65.02;100242.00;2039023;27;2727344;-78
2023/08/01 02:42:33;;;;;;;;;0.00;0.00;;;;;22.23;65.07;100254.69;2032134;27;2729458;-78
2023/08/01 02:43:46;;;;;;;;;0.33;0.00;;;;;22.22;64.74;100263.72;2036150;27;2732011;-85
2023/08/01 02:45:00;;;;;;;;;0.00;0.00;;;;;22.21;64.73;100263.81;2039072;27;2733608;-83
2023/08/01 02:46:13;;;;;;;;;0.83;0.00;;;;;22.19;64.82;100269.34;2039116;27;2729433;-82
2023/08/01 02:47:26;;;;;;;;;0.67;0.00;;;;;22.18;65.19;100269.44;2030821;27;2731551;-78
2023/08/01 02:48:39;;;;;;;;;0.00;0.00;;;;;22.15;65.52;100263.41;2029216;27;2727761;-79
2023/08/01 02:49:53;;;;;;;;;0.00;0.00;;;;;22.13;65.06;100265.38;2030755;27;2731531;-79
2023/08/01 02:51:08;;;;;;;;;0.00;0.00;;;;;22.12;64.97;100257.50;2039003;27;2733610;-80
2023/08/01 02:52:22;;;;;;;;;0.00;0.00;;;;;22.10;64.44;100265.63;2031300;27;2727357;-80
2023/08/01 02:53:36;;;;;;;;;0.00;0.00;;;;;22.08;65.00;100266.75;2030871;28;2731542;-79
2023/08/01 02:54:49;;;;;;;;;0.67;0.17;;;;;22.06;64.67;100274.09;2031366;27;2724232;-79
2023/08/01 02:56:04;;;;;;;;;0.00;0.00;;;;;22.03;64.98;100275.19;2037316;27;2725257;-79
2023/08/01 02:57:17;;;;;;;;;1.17;0.00;;;;;22.00;65.05;100275.50;2032936;27;2733650;-79
2023/08/01 02:58:30;;;;;;;;;0.50;0.50;;;;;21.97;65.12;100276.63;2030671;27;2729491;-77
2023/08/01 02:59:45;;;;;;;;;0.67;0.00;;;;;21.97;65.11;100281.13;2034368;27;2725924;-77
2023/08/01 03:00:58;;;;;;;;;2.00;0.67;;;;;21.94;64.66;100274.22;2039578;27;2718017;-77
2023/08/01 03:02:11;;;;;;;;;0.00;0.00;;;;;21.92;65.42;100281.53;2036234;27;2733678;-77
2023/08/01 03:03:24;;;;;;;;;0.00;0.00;;;;;21.91;64.92;100290.53;2029472;28;2725262;-76
2023/08/01 03:04:37;;;;;;;;;0.33;0.33;;;;;21.89;65.47;100287.13;2032906;27;2721171;-81
2023/08/01 03:05:52;;;;;;;;;0.50;0.50;;;;;21.88;65.75;100286.28;2037902;27;2729425;-81
2023/08/01 03:07:05;;;;;;;;;1.00;1.00;;;;;21.88;65.14;100285.44;2037717;27;2729512;-80
2023/08/01 03:08:18;;;;;;;;;1.00;1.00;;;;;21.87;65.15;100294.47;2038482;27;2731536;-82
2023/08/01 03:09:32;;;;;;;;;0.83;0.83;;;;;21.85;65.39;100291.06;2034043;27;2727364;-81
2023/08/01 03:10:45;;;;;;;;;0.00;0.00;;;;;21.85;64.88;100299.06;2039195;27;2724236;-80
2023/08/01 03:11:58;;;;;;;;;0.00;0.00;;;;;21.84;65.22;100303.56;2039093;27;2731540;-79
2023/08/01 03:13:12;;;;;;;;;1.67;0.00;;;;;21.85;65.22;100301.75;2036232;27;2728407;-77
2023/08/01 03:14:25;;;;;;;;;1.00;0.00;;;;;21.83;64.74;100303.72;2030499;27;2726396;-77
2023/08/01 03:15:38;;;;;;;;;0.00;0.00;;;;;21.82;64.62;100305.53;2029264;28;2724271;-77
2023/08/01 03:16:51;;;;;;;;;0.00;0.00;;;;;21.80;65.06;100302.16;2022772;28;2733623;-76
2023/08/01 03:18:04;;;;;;;;;0.00;0.00;;;;;21.79;64.70;100305.81;2031397;27;2733595;-75
2023/08/01 03:19:18;;;;;;;;;0.00;0.00;;;;;21.77;64.56;100308.63;2030557;27;2725337;-75
2023/08/01 03:20:31;;;;;;;;;0.00;0.00;;;;;21.76;64.18;100317.63;2030311;27;2724228;-76
2023/08/01 03:21:44;;;;;;;;;2.00;0.00;;;;;21.74;64.87;100316.91;2030152;28;2727353;-75
2023/08/01 03:22:57;;;;;;;;;1.00;0.00;;;;;21.73;64.65;100312.53;2030706;27;2728919;-75
2023/08/01 03:24:11;;;;;;;;;0.00;0.00;;;;;21.73;64.47;100311.72;2031983;27;2729437;-75
2023/08/01 03:25:24;;;;;;;;;0.00;0.00;;;;;21.72;64.39;100313.53;2031499;27;2733595;-75
2023/08/01 03:26:37;;;;;;;;;0.00;0.00;;;;;21.72;64.54;100318.03;2028010;28;2733615;-76
2023/08/01 03:27:50;;;;;;;;;0.00;0.00;;;;;21.72;63.91;100321.56;2023554;28;2723178;-74
2023/08/01 03:29:05;;;;;;;;;0.00;0.00;;;;;21.72;63.57;100328.72;2026549;27;2719009;-74
2023/08/01 03:30:18;;;;;;;;;0.00;0.00;;;;;21.71;64.11;100327.88;2030534;27;2733618;-74
2023/08/01 03:31:31;;;;;;;;;0.00;0.00;;;;;21.70;64.12;100326.19;2030502;28;2731511;-74
2023/08/01 03:32:44;;;;;;;;;0.00;0.00;;;;;21.70;63.92;100327.00;2028870;28;2724585;-74
2023/08/01 03:33:58;;;;;;;;;0.00;0.00;;;;;21.69;64.15;100322.66;2022473;28;2731628;-74
2023/08/01 03:35:11;;;;;;;;;0.83;0.00;;;;;21.70;63.83;100320.84;2022564;28;2733610;-74
2023/08/01 03:36:25;;;;;;;;;0.17;0.17;;;;;21.69;63.83;100321.81;2032042;27;2729432;-74
2023/08/01 03:37:38;;;;;;;;;0.00;0.00;;;;;21.67;63.74;100323.78;2033977;27;2723215;-74
2023/08/01 03:38:52;;;;;;;;;0.00;0.00;;;;;21.65;64.27;100323.06;2031271;27;2726326;-79
2023/08/01 03:40:08;;;;;;;;;0.00;0.00;;;;;21.62;63.91;100324.19;2038035;27;2724212;-78
2023/08/01 03:41:21;;;;;;;;;0.00;0.00;;;;;21.62;63.81;100326.84;2022131;28;2721123;-77
2023/08/01 03:42:35;;;;;;;;;0.00;0.00;;;;;21.62;63.74;100320.66;2024117;27;2726295;-77
2023/08/01 03:43:48;;;;;;;;;1.50;0.67;;;;;21.62;63.94;100320.66;2038162;27;2729461;-77
2023/08/01 03:45:01;;;;;;;;;0.17;0.00;;;;;21.61;64.09;100324.31;2028796;28;2727325;-75
2023/08/01 03:46:15;;;;;;;;;0.00;0.00;;;;;21.60;64.17;100331.50;2031895;27;2725293;-75
2023/08/01 03:47:28;;;;;;;;;0.00;0.00;;;;;21.60;63.75;100336.84;2039127;27;2724248;-75
2023/08/01 03:48:43;;;;;;;;;0.00;0.00;;;;;21.61;63.49;100335.03;2026760;27;2733607;-75
2023/08/01 03:49:56;;;;;;;;;0.00;0.00;;;;;21.58;64.19;100336.13;2029463;28;2724237;-75
2023/08/01 03:51:09;;;;;;;;;0.00;0.00;;;;;21.57;63.88;100340.63;2029603;28;2726380;-75
2023/08/01 03:52:22;;;;;;;;;0.00;0.00;;;;;21.57;63.79;100345.97;2029519;28;2728386;-75
2023/08/01 03:53:36;;;;;;;;;1.00;1.00;;;;;21.54;63.30;100342.72;2033246;27;2728405;-76
2023/08/01 03:54:49;;;;;;;;;0.00;0.00;;;;;21.53;63.28;100349.88;2039820;27;2724252;-76
2023/08/01 03:56:02;;;;;;;;;0.33;0.33;;;;;21.52;64.24;100350.00;2029081;27;2725694;-76
2023/08/01 03:57:15;;;;;;;;;0.00;0.00;;;;;21.51;63.13;100351.84;2030331;27;2726318;-74
2023/08/01 03:58:29;;;;;;;;;0.00;0.00;;;;;21.50;62.86;100366.19;2036441;27;2725300;-74
2023/08/01 03:59:42;;;;;;;;;0.00;0.00;;;;;21.48;63.29;100360.97;2038333;27;2717978;-74
2023/08/01 04:00:55;;;;;;;;;0.17;0.00;;;;;21.46;63.50;100351.38;2036626;27;2725322;-74
2023/08/01 04:02:08;;;;;;;;;0.00;0.00;;;;;21.47;63.25;100351.28;2030696;28;2732023;-74
2023/08/01 04:03:22;;;;;;;;;0.33;0.00;;;;;21.48;63.17;100354.78;2029106;27;2725283;-76
2023/08/01 04:04:35;;;;;;;;;2.00;1.00;;;;;21.46;63.03;100354.06;2030308;27;2735682;-76
2023/08/01 04:05:48;;;;;;;;;1.00;1.00;;;;;21.43;62.81;100357.88;2030061;27;2736739;-75
2023/08/01 04:07:01;;;;;;;;;0.33;0.00;;;;;21.42;63.03;100348.13;2030386;28;2728382;-75
2023/08/01 04:08:14;;;;;;;;;2.00;1.00;;;;;21.42;62.67;100356.16;2030530;28;2715895;-75
2023/08/01 04:09:28;;;;;;;;;1.50;1.00;;;;;21.40;62.77;100352.78;2029996;28;2728906;-73
2023/08/01 04:10:41;;;;;;;;;1.00;1.00;;;;;21.40;62.65;100354.59;2021907;27;2725294;-72
2023/08/01 04:11:54;;;;;;;;;1.00;0.67;;;;;21.38;62.83;100345.88;2029365;27;2730462;-73
2023/08/01 04:13:07;;;;;;;;;1.33;1.33;;;;;21.35;62.35;100355.00;2036926;27;2725385;-75
2023/08/01 04:14:20;;;;;;;;;1.17;0.83;;;;;21.33;63.02;100356.94;2035743;27;2717962;-75
2023/08/01 04:15:34;;;;;;;;;1.00;1.00;;;;;21.30;63.24;100354.53;2033141;27;2733607;-75
2023/08/01 04:16:47;;;;;;;;;0.33;0.33;;;;;21.29;63.20;100352.81;2030583;28;2725304;-75
2023/08/01 04:18:00;;;;;;;;;1.50;1.00;;;;;21.26;62.71;100351.25;2021756;28;2717042;-75
2023/08/01 04:19:13;;;;;;;;;1.17;1.17;;;;;21.24;62.86;100355.88;2028460;27;2727872;-74
2023/08/01 04:20:26;;;;;;;;;1.00;1.00;;;;;21.21;62.80;100356.19;2031298;27;2721117;-74
2023/08/01 04:21:39;;;;;;;;;1.67;1.67;;;;;21.19;62.89;100355.44;2028227;28;2736747;-77
2023/08/01 04:22:53;;;;;;;;;2.00;1.00;;;;;21.17;63.20;100352.03;2028564;28;2740898;-76
2023/08/01 04:24:06;;;;;;;;;2.00;1.00;;;;;21.16;62.97;100353.03;2030635;27;2720192;-82
2023/08/01 04:25:19;;;;;;;;;0.83;0.83;;;;;21.15;63.51;100357.53;2030721;27;2729472;-80
2023/08/01 04:26:32;;;;;;;;;1.00;1.00;;;;;21.16;63.20;100355.72;2033724;27;2728388;-79
2023/08/01 04:27:45;;;;;;;;;1.00;1.00;;;;;21.17;63.39;100363.59;2024087;28;2725709;-81
2023/08/01 04:28:58;;;;;;;;;2.00;1.00;;;;;21.14;63.38;100356.69;2030158;27;2733620;-77
2023/08/01 04:30:12;;;;;;;;;2.00;0.50;;;;;21.15;63.22;100365.53;2043640;27;2725746;-76
2023/08/01 04:31:25;;;;;;;;;1.50;0.50;;;;;21.16;63.20;100361.06;2035490;27;2733587;-80
2023/08/01 04:32:38;;;;;;;;;1.00;1.00;;;;;21.13;63.49;100362.16;2031032;27;2724248;-79
2023/08/01 04:33:51;;;;;;;;;1.17;1.00;;;;;21.15;63.10;100368.22;2036924;27;2722137;-79
2023/08/01 04:35:05;;;;;;;;;1.00;1.00;;;;;21.15;62.69;100373.56;2029373;28;2715227;-79
2023/08/01 04:36:18;;;;;;;;;1.00;1.00;;;;;21.14;62.40;100378.06;2028940;28;2734645;-78
2023/08/01 04:37:31;;;;;;;;;0.00;0.00;;;;;21.13;62.88;100355.00;2030909;27;2725758;-76
2023/08/01 04:38:44;;;;;;;;;0.50;0.50;;;;;21.16;62.95;100359.25;2030168;28;2733587;-77
2023/08/01 04:39:58;;;;;;;;;1.00;1.00;;;;;21.19;62.05;100355.44;2030230;28;2725289;-84
2023/08/01 04:41:11;;;;;;;;;0.50;0.50;;;;;21.18;61.96;100357.28;2030453;27;2725250;-79
2023/08/01 04:42:24;;;;;;;;;2.17;1.67;;;;;21.18;62.78;100359.94;2028940;27;2736736;-78
2023/08/01 04:43:37;;;;;;;;;1.00;1.00;;;;;21.20;62.25;100365.16;2038503;27;2724227;-74
2023/08/01 04:44:51;;;;;;;;;2.83;1.00;;;;;21.20;61.79;100365.16;2029653;28;2722152;-74
2023/08/01 04:46:04;;;;;;;;;1.83;1.00;;;;;21.19;62.35;100355.44;2030124;28;2719007;-73
2023/08/01 04:47:18;;;;;;;;;1.17;1.17;;;;;21.19;62.61;100363.44;2029109;28;2735710;-77
2023/08/01 04:48:32;;;;;;;;;1.00;1.00;;;;;21.18;62.09;100359.09;2029981;28;2724559;-78
2023/08/01 04:49:45;;;;;;;;;1.50;1.00;;;;;21.14;62.20;100362.03;2034756;27;2725273;-83
2023/08/01 04:50:55;;;;;;;;;4.67;2.00;;;;;21.12;62.12;100360.47;2002730;27;2744091;-82
2023/08/01 04:52:07;;;;;;;;;1.33;1.00;;;;;21.09;62.49;100364.22;2054122;27;2731651;-81
2023/08/01 04:53:20;;;;;;;;;2.00;2.00;;;;;21.06;62.31;100363.66;2037528;27;2744110;-81
2023/08/01 04:54:33;;;;;;;;;2.00;1.00;;;;;21.03;62.71;100362.09;2036813;27;2731522;-81
2023/08/01 04:55:46;;;;;;;;;1.00;1.00;;;;;21.01;62.29;100361.38;2021732;27;2729447;-81
2023/08/01 04:56:59;;;;;;;;;1.00;1.00;;;;;20.97;62.80;100368.75;2021600;27;2725333;-81
2023/08/01 04:58:13;;;;;;;;;1.00;1.00;;;;;20.94;62.14;100371.66;2037342;27;2728387;-81
2023/08/01 04:59:26;;;;;;;;;2.33;1.00;;;;;20.91;61.69;100369.28;2033732;27;2733651;-81
2023/08/01 05:00:42;;;;;;;;;2.00;2.00;;;;;20.87;62.44;100376.69;2032948;27;2744046;-81
2023/08/01 05:01:55;;;;;;;;;2.00;1.33;;;;;20.87;62.21;100379.34;2038338;27;2736760;-81
2023/08/01 05:03:08;;;;;;;;;1.00;1.00;;;;;20.82;62.53;100376.22;2033928;27;2734672;-81
2023/08/01 05:04:21;;;;;;;;;2.00;0.67;;;;;20.79;62.14;100373.81;2036049;27;2721127;-81
2023/08/01 05:05:34;;;;;;;;;2.33;1.50;;;;;20.76;62.24;100374.91;2036405;27;2722138;-81
2023/08/01 05:06:48;;;;;;;;;1.00;1.00;;;;;20.75;62.16;100373.22;2033709;27;2735742;-81
2023/08/01 05:07:58;;;;;;;;;3.67;2.00;;;;;20.74;62.42;100373.34;2010709;27;2739932;-80
2023/08/01 05:09:09;;;;;;;;;1.00;1.00;;;;;20.73;62.37;100374.31;2057489;27;2726316;-81
2023/08/01 05:10:22;;;;;;;;;2.00;1.33;;;;;20.72;62.21;100380.63;2059708;27;2730502;-81
2023/08/01 05:11:36;;;;;;;;;1.33;1.33;;;;;20.69;61.95;100382.56;2035032;27;2737817;-81
2023/08/01 05:12:49;;;;;;;;;1.67;1.00;;;;;20.67;62.65;100373.84;2036109;27;2728412;-82
2023/08/01 05:14:02;;;;;;;;;3.00;1.00;;;;;20.69;62.70;100379.06;2033988;27;2728394;-81
2023/08/01 05:15:15;;;;;;;;;1.17;1.17;;;;;20.71;62.97;100384.28;2035162;27;2733606;-81
2023/08/01 05:16:29;;;;;;;;;1.00;1.00;;;;;20.75;62.76;100378.56;2035663;27;2725297;-81
2023/08/01 05:17:42;;;;;;;;;1.83;1.83;;;;;20.74;62.82;100384.84;2036683;27;2730488;-81
2023/08/01 05:18:55;;;;;;;;;2.00;2.00;;;;;20.73;63.03;100387.66;2032570;27;2746114;-80
2023/08/01 05:20:09;;;;;;;;;2.00;2.00;;;;;20.73;63.24;100382.31;2036868;27;2739849;-80
2023/08/01 05:21:19;;;;;;;;;2.00;2.00;;;;;20.75;63.00;100389.22;2009354;27;2748210;-80
2023/08/01 05:22:30;;;;;;;;;1.00;1.00;;;;;20.77;63.35;100389.09;2060856;27;2725770;-80
2023/08/01 05:23:43;;;;;;;;;2.00;2.00;;;;;20.76;62.33;100390.94;2032590;27;2735725;-81
2023/08/01 05:24:56;;;;;;;;;1.00;0.00;;;;;20.74;62.38;100392.88;2036542;27;2737757;-80
2023/08/01 05:26:10;;;;;;;;;3.00;2.83;;;;;20.72;62.66;100388.66;2035582;27;2741984;-80
2023/08/01 05:27:23;;;;;;;;;2.00;1.00;;;;;20.73;62.69;100395.66;2037048;27;2727382;-82
2023/08/01 05:28:36;;;;;;;;;2.00;1.00;;;;;20.73;62.85;100395.66;2039418;27;2733608;-81
2023/08/01 05:29:46;;;;;;;;;2.00;2.00;;;;;20.74;62.24;100400.06;2010154;27;2744016;-75